sensor_id;sensor_type;location;lat;lon;timestamp;pressure;altitude;pressure_sealevel;temperature;humidity
62333;BME280;48624;49.812;8.562;2023-02-11T00:00:54;102652.72;;;1.13;86.39
62333;BME280;48624;49.812;8.562;2023-02-11T00:03:19;102662.28;;;1.09;86.92
62333;BME280;48624;49.812;8.562;2023-02-11T00:05:44;102663.09;;;1.02;87.79
62333;BME280;48624;49.812;8.562;2023-02-11T00:08:09;102652.66;;;1.02;86.95
62333;BME280;48624;49.812;8.562;2023-02-11T00:10:41;102658.81;;;1.14;86.57
62333;BME280;48624;49.812;8.562;2023-02-11T00:13:06;102666.47;;;0.90;87.75
62333;BME280;48624;49.812;8.562;2023-02-11T00:15:32;102666.53;;;0.96;88.08
62333;BME280;48624;49.812;8.562;2023-02-11T00:17:57;102667.31;;;0.88;88.20
62333;BME280;48624;49.812;8.562;2023-02-11T00:20:23;102665.72;;;1.05;87.56
62333;BME280;48624;49.812;8.562;2023-02-11T00:22:48;102663.03;;;0.93;88.01
62333;BME280;48624;49.812;8.562;2023-02-11T00:25:13;102680.44;;;0.97;88.48
62333;BME280;48624;49.812;8.562;2023-02-11T00:27:38;102667.34;;;0.91;87.79
62333;BME280;48624;49.812;8.562;2023-02-11T00:30:04;102669.97;;;0.91;88.79
62333;BME280;48624;49.812;8.562;2023-02-11T00:32:30;102667.34;;;0.91;88.48
62333;BME280;48624;49.812;8.562;2023-02-11T00:34:55;102669.13;;;0.95;88.85
62333;BME280;48624;49.812;8.562;2023-02-11T00:37:21;102661.31;;;0.98;88.04
62333;BME280;48624;49.812;8.562;2023-02-11T00:39:46;102655.09;;;0.82;88.77
62333;BME280;48624;49.812;8.562;2023-02-11T00:42:14;102655.13;;;0.87;88.69
62333;BME280;48624;49.812;8.562;2023-02-11T00:44:39;102660.34;;;0.87;89.58
62333;BME280;48624;49.812;8.562;2023-02-11T00:47:05;102650.69;;;0.76;89.45
62333;BME280;48624;49.812;8.562;2023-02-11T00:49:30;102659.53;;;0.92;89.46
62333;BME280;48624;49.812;8.562;2023-02-11T00:51:57;102661.22;;;0.86;89.75
62333;BME280;48624;49.812;8.562;2023-02-11T00:54:22;102653.44;;;0.93;89.76
62333;BME280;48624;49.812;8.562;2023-02-11T00:56:47;102658.69;;;0.96;89.46
62333;BME280;48624;49.812;8.562;2023-02-11T00:59:13;102655.19;;;0.93;89.88
62333;BME280;48624;49.812;8.562;2023-02-11T01:01:38;102644.78;;;0.98;89.45
62333;BME280;48624;49.812;8.562;2023-02-11T01:04:04;102636.16;;;1.11;89.22
62333;BME280;48624;49.812;8.562;2023-02-11T01:06:29;102637.91;;;1.09;89.51
62333;BME280;48624;49.812;8.562;2023-02-11T01:08:54;102638.72;;;1.00;89.91
62333;BME280;48624;49.812;8.562;2023-02-11T01:11:20;102638.84;;;1.20;88.58
62333;BME280;48624;49.812;8.562;2023-02-11T01:13:47;102643.22;;;1.26;88.18
62333;BME280;48624;49.812;8.562;2023-02-11T01:16:13;102633.66;;;1.27;88.78
62333;BME280;48624;49.812;8.562;2023-02-11T01:18:40;102637.16;;;1.29;89.02
62333;BME280;48624;49.812;8.562;2023-02-11T01:21:07;102637.16;;;1.32;88.75
62333;BME280;48624;49.812;8.562;2023-02-11T01:23:32;102636.28;;;1.30;88.38
62333;BME280;48624;49.812;8.562;2023-02-11T01:25:57;102627.63;;;1.37;88.67
62333;BME280;48624;49.812;8.562;2023-02-11T01:28:25;102630.22;;;1.29;88.78
62333;BME280;48624;49.812;8.562;2023-02-11T01:30:52;102621.44;;;1.22;88.31
62333;BME280;48624;49.812;8.562;2023-02-11T01:33:17;102623.22;;;1.30;88.63
62333;BME280;48624;49.812;8.562;2023-02-11T01:35:43;102624.13;;;1.30;88.48
62333;BME280;48624;49.812;8.562;2023-02-11T01:38:17;102626.84;;;1.49;87.54
62333;BME280;48624;49.812;8.562;2023-02-11T01:40:51;102628.53;;;1.47;87.63
62333;BME280;48624;49.812;8.562;2023-02-11T01:43:18;102629.38;;;1.38;87.65
62333;BME280;48624;49.812;8.562;2023-02-11T01:48:11;102621.63;;;1.57;87.10
62333;BME280;48624;49.812;8.562;2023-02-11T01:50:38;102605.91;;;1.44;87.75
62333;BME280;48624;49.812;8.562;2023-02-11T01:53:05;102607.75;;;1.67;86.37
62333;BME280;48624;49.812;8.562;2023-02-11T01:55:51;102605.94;;;1.55;86.56
62333;BME280;48624;49.812;8.562;2023-02-11T01:58:37;102593.72;;;1.49;86.85
62333;BME280;48624;49.812;8.562;2023-02-11T02:01:04;102596.38;;;1.52;86.45
62333;BME280;48624;49.812;8.562;2023-02-11T02:03:33;102591.16;;;1.56;86.79
62333;BME280;48624;49.812;8.562;2023-02-11T02:06:46;102581.50;;;1.39;87.16
62333;BME280;48624;49.812;8.562;2023-02-11T02:09:21;102572.75;;;1.29;87.37
62333;BME280;48624;49.812;8.562;2023-02-11T02:11:48;102578.84;;;1.34;87.59
62333;BME280;48624;49.812;8.562;2023-02-11T02:14:14;102574.56;;;1.43;87.27
62333;BME280;48624;49.812;8.562;2023-02-11T02:16:39;102575.41;;;1.38;87.17
62333;BME280;48624;49.812;8.562;2023-02-11T02:19:29;102570.09;;;1.26;88.23
62333;BME280;48624;49.812;8.562;2023-02-11T02:22:14;102563.16;;;1.30;87.67
62333;BME280;48624;49.812;8.562;2023-02-11T02:28:04;102559.69;;;1.28;88.06
62333;BME280;48624;49.812;8.562;2023-02-11T02:31:06;102555.28;;;1.14;88.49
62333;BME280;48624;49.812;8.562;2023-02-11T02:36:53;102557.13;;;1.37;87.52
62333;BME280;48624;49.812;8.562;2023-02-11T02:39:25;102545.81;;;1.43;87.76
62333;BME280;48624;49.812;8.562;2023-02-11T02:41:52;102540.50;;;1.24;88.34
62333;BME280;48624;49.812;8.562;2023-02-11T02:44:19;102541.38;;;1.26;87.72
62333;BME280;48624;49.812;8.562;2023-02-11T02:46:45;102548.25;;;1.10;87.94
62333;BME280;48624;49.812;8.562;2023-02-11T02:49:14;102550.06;;;1.19;88.26
62333;BME280;48624;49.812;8.562;2023-02-11T02:57:46;102544.81;;;1.16;88.65
62333;BME280;48624;49.812;8.562;2023-02-11T03:00:31;102548.34;;;1.26;88.19
62333;BME280;48624;49.812;8.562;2023-02-11T03:05:38;102568.47;;;1.44;87.36
62333;BME280;48624;49.812;8.562;2023-02-11T03:08:11;102571.97;;;1.52;86.77
62333;BME280;48624;49.812;8.562;2023-02-11T03:10:43;102574.56;;;1.46;86.99
62333;BME280;48624;49.812;8.562;2023-02-11T03:13:10;102577.19;;;1.50;87.12
62333;BME280;48624;49.812;8.562;2023-02-11T03:15:41;102575.47;;;1.52;86.69
62333;BME280;48624;49.812;8.562;2023-02-11T03:18:11;102573.66;;;1.39;87.00
62333;BME280;48624;49.812;8.562;2023-02-11T03:20:39;102571.94;;;1.46;87.21
62333;BME280;48624;49.812;8.562;2023-02-11T03:23:11;102561.50;;;1.43;87.35
62333;BME280;48624;49.812;8.562;2023-02-11T03:25:45;102563.16;;;1.27;87.67
62333;BME280;48624;49.812;8.562;2023-02-11T03:28:28;102558.03;;;1.45;87.57
62333;BME280;48624;49.812;8.562;2023-02-11T03:31:01;102557.09;;;1.34;87.56
62333;BME280;48624;49.812;8.562;2023-02-11T03:36:31;102556.25;;;1.43;88.01
62333;BME280;48624;49.812;8.562;2023-02-11T03:38:59;102551.88;;;1.32;88.11
62333;BME280;48624;49.812;8.562;2023-02-11T03:41:26;102551.81;;;1.23;88.70
62333;BME280;48624;49.812;8.562;2023-02-11T03:43:54;102540.50;;;1.27;88.52
62333;BME280;48624;49.812;8.562;2023-02-11T03:46:26;102548.38;;;1.30;88.80
62333;BME280;48624;49.812;8.562;2023-02-11T03:48:55;102552.75;;;1.39;88.44
62333;BME280;48624;49.812;8.562;2023-02-11T03:51:23;102540.56;;;1.41;88.00
62333;BME280;48624;49.812;8.562;2023-02-11T03:53:52;102538.81;;;1.29;88.29
62333;BME280;48624;49.812;8.562;2023-02-11T03:56:22;102528.28;;;1.14;88.68
62333;BME280;48624;49.812;8.562;2023-02-11T03:58:50;102530.09;;;1.26;88.49
62333;BME280;48624;49.812;8.562;2023-02-11T04:01:15;102522.22;;;1.24;88.90
62333;BME280;48624;49.812;8.562;2023-02-11T04:03:41;102516.09;;;1.17;89.39
62333;BME280;48624;49.812;8.562;2023-02-11T04:06:06;102502.25;;;1.34;88.59
62333;BME280;48624;49.812;8.562;2023-02-11T04:08:32;102489.16;;;1.28;88.72
62333;BME280;48624;49.812;8.562;2023-02-11T04:10:57;102475.25;;;1.30;88.53
62333;BME280;48624;49.812;8.562;2023-02-11T04:13:23;102465.66;;;1.24;88.84
62333;BME280;48624;49.812;8.562;2023-02-11T04:15:49;102473.47;;;1.20;88.64
62333;BME280;48624;49.812;8.562;2023-02-11T04:18:14;102465.56;;;1.04;89.67
62333;BME280;48624;49.812;8.562;2023-02-11T04:20:40;102462.97;;;1.12;89.46
62333;BME280;48624;49.812;8.562;2023-02-11T04:23:06;102469.94;;;1.10;89.43
62333;BME280;48624;49.812;8.562;2023-02-11T04:25:31;102456.94;;;1.21;88.91
62333;BME280;48624;49.812;8.562;2023-02-11T04:27:56;102471.75;;;1.23;89.04
62333;BME280;48624;49.812;8.562;2023-02-11T04:30:22;102467.34;;;1.15;89.27
62333;BME280;48624;49.812;8.562;2023-02-11T04:32:47;102479.56;;;1.25;89.07
62333;BME280;48624;49.812;8.562;2023-02-11T04:35:12;102487.44;;;1.28;88.46
62333;BME280;48624;49.812;8.562;2023-02-11T04:37:38;102502.19;;;1.21;88.90
62333;BME280;48624;49.812;8.562;2023-02-11T04:40:03;102495.25;;;1.30;88.73
62333;BME280;48624;49.812;8.562;2023-02-11T04:42:29;102503.03;;;1.16;88.80
62333;BME280;48624;49.812;8.562;2023-02-11T04:44:54;102495.28;;;1.28;88.29
62333;BME280;48624;49.812;8.562;2023-02-11T04:47:20;102507.47;;;1.32;88.25
62333;BME280;48624;49.812;8.562;2023-02-11T04:49:45;102517.00;;;1.27;88.50
62333;BME280;48624;49.812;8.562;2023-02-11T04:52:10;102514.44;;;1.41;87.70
62333;BME280;48624;49.812;8.562;2023-02-11T04:54:36;102510.97;;;1.33;87.99
62333;BME280;48624;49.812;8.562;2023-02-11T04:57:01;102517.97;;;1.43;87.44
62333;BME280;48624;49.812;8.562;2023-02-11T04:59:26;102517.06;;;1.38;88.22
62333;BME280;48624;49.812;8.562;2023-02-11T05:01:53;102522.28;;;1.36;87.97
62333;BME280;48624;49.812;8.562;2023-02-11T05:04:18;102529.22;;;1.28;87.85
62333;BME280;48624;49.812;8.562;2023-02-11T05:06:44;102517.00;;;1.22;88.04
62333;BME280;48624;49.812;8.562;2023-02-11T05:09:11;102511.00;;;1.41;87.34
62333;BME280;48624;49.812;8.562;2023-02-11T05:11:36;102496.16;;;1.36;87.72
62333;BME280;48624;49.812;8.562;2023-02-11T05:14:04;102498.75;;;1.36;87.73
62333;BME280;48624;49.812;8.562;2023-02-11T05:16:29;102496.16;;;1.41;87.53
62333;BME280;48624;49.812;8.562;2023-02-11T05:18:54;102488.38;;;1.47;87.90
62333;BME280;48624;49.812;8.562;2023-02-11T05:21:20;102500.59;;;1.55;86.66
62333;BME280;48624;49.812;8.562;2023-02-11T05:23:46;102494.47;;;1.51;87.19
62333;BME280;48624;49.812;8.562;2023-02-11T05:26:12;102488.41;;;1.69;86.30
62333;BME280;48624;49.812;8.562;2023-02-11T05:28:38;102482.28;;;1.53;86.38
62333;BME280;48624;49.812;8.562;2023-02-11T05:31:04;102483.06;;;1.29;87.41
62333;BME280;48624;49.812;8.562;2023-02-11T05:33:31;102471.78;;;1.28;87.15
62333;BME280;48624;49.812;8.562;2023-02-11T05:36:05;102472.69;;;1.40;87.05
62333;BME280;48624;49.812;8.562;2023-02-11T05:38:32;102477.91;;;1.40;87.06
62333;BME280;48624;49.812;8.562;2023-02-11T05:40:58;102483.94;;;1.23;87.86
62333;BME280;48624;49.812;8.562;2023-02-11T05:43:23;102483.13;;;1.35;87.47
62333;BME280;48624;49.812;8.562;2023-02-11T05:45:50;102484.78;;;1.20;88.10
62333;BME280;48624;49.812;8.562;2023-02-11T05:48:15;102477.84;;;1.24;88.27
62333;BME280;48624;49.812;8.562;2023-02-11T05:50:41;102465.66;;;1.28;88.23
62333;BME280;48624;49.812;8.562;2023-02-11T05:53:07;102467.44;;;1.33;87.62
62333;BME280;48624;49.812;8.562;2023-02-11T05:55:32;102456.13;;;1.36;87.49
62333;BME280;48624;49.812;8.562;2023-02-11T05:57:57;102472.66;;;1.35;87.41
62333;BME280;48624;49.812;8.562;2023-02-11T06:00:23;102492.75;;;1.58;86.42
62333;BME280;48624;49.812;8.562;2023-02-11T06:02:48;102497.97;;;1.50;86.95
62333;BME280;48624;49.812;8.562;2023-02-11T06:05:14;102493.56;;;1.35;87.06
62333;BME280;48624;49.812;8.562;2023-02-11T06:07:39;102497.91;;;1.42;86.45
62333;BME280;48624;49.812;8.562;2023-02-11T06:10:05;102495.28;;;1.37;87.51
62333;BME280;48624;49.812;8.562;2023-02-11T06:12:31;102488.25;;;1.22;87.42
62333;BME280;48624;49.812;8.562;2023-02-11T06:14:56;102486.53;;;1.18;88.26
62333;BME280;48624;49.812;8.562;2023-02-11T06:17:21;102495.22;;;1.20;88.05
62333;BME280;48624;49.812;8.562;2023-02-11T06:19:48;102494.41;;;1.29;87.51
62333;BME280;48624;49.812;8.562;2023-02-11T06:22:13;102494.41;;;1.31;88.05
62333;BME280;48624;49.812;8.562;2023-02-11T06:24:39;102505.66;;;1.14;88.20
62333;BME280;48624;49.812;8.562;2023-02-11T06:27:05;102496.09;;;1.16;88.26
62333;BME280;48624;49.812;8.562;2023-02-11T06:29:30;102487.44;;;1.28;88.05
62333;BME280;48624;49.812;8.562;2023-02-11T06:31:55;102498.75;;;1.33;87.70
62333;BME280;48624;49.812;8.562;2023-02-11T06:34:21;102493.53;;;1.26;87.71
62333;BME280;48624;49.812;8.562;2023-02-11T06:36:46;102503.13;;;1.36;87.27
62333;BME280;48624;49.812;8.562;2023-02-11T06:39:13;102504.88;;;1.34;87.18
62333;BME280;48624;49.812;8.562;2023-02-11T06:41:38;102507.50;;;1.34;87.67
62333;BME280;48624;49.812;8.562;2023-02-11T06:44:04;102506.56;;;1.26;87.81
62333;BME280;48624;49.812;8.562;2023-02-11T06:46:30;102517.06;;;1.41;87.57
62333;BME280;48624;49.812;8.562;2023-02-11T06:48:55;102511.03;;;1.61;86.82
62333;BME280;48624;49.812;8.562;2023-02-11T06:51:22;102498.78;;;1.35;87.41
62333;BME280;48624;49.812;8.562;2023-02-11T06:53:47;102499.66;;;1.37;87.56
62333;BME280;48624;49.812;8.562;2023-02-11T06:56:18;102490.06;;;1.31;87.48
62333;BME280;48624;49.812;8.562;2023-02-11T06:58:44;102498.75;;;1.29;87.48
62333;BME280;48624;49.812;8.562;2023-02-11T07:01:11;102508.34;;;1.33;87.39
62333;BME280;48624;49.812;8.562;2023-02-11T07:03:39;102514.44;;;1.33;87.11
62333;BME280;48624;49.812;8.562;2023-02-11T07:06:07;102517.94;;;1.40;87.17
62333;BME280;48624;49.812;8.562;2023-02-11T07:08:33;102513.56;;;1.31;87.53
62333;BME280;48624;49.812;8.562;2023-02-11T07:10:59;102503.09;;;1.25;87.50
62333;BME280;48624;49.812;8.562;2023-02-11T07:13:25;102499.56;;;1.21;87.51
62333;BME280;48624;49.812;8.562;2023-02-11T07:15:50;102508.34;;;1.34;87.38
62333;BME280;48624;49.812;8.562;2023-02-11T07:18:15;102503.13;;;1.28;87.57
62333;BME280;48624;49.812;8.562;2023-02-11T07:20:41;102503.94;;;1.27;86.79
62333;BME280;48624;49.812;8.562;2023-02-11T07:23:06;102498.78;;;1.38;86.71
62333;BME280;48624;49.812;8.562;2023-02-11T07:25:31;102504.00;;;1.36;87.07
62333;BME280;48624;49.812;8.562;2023-02-11T07:27:57;102504.84;;;1.29;87.55
62333;BME280;48624;49.812;8.562;2023-02-11T07:30:22;102491.69;;;1.07;88.18
62333;BME280;48624;49.812;8.562;2023-02-11T07:32:48;102492.66;;;1.28;87.48
62333;BME280;48624;49.812;8.562;2023-02-11T07:35:13;102500.47;;;1.22;87.89
62333;BME280;48624;49.812;8.562;2023-02-11T07:37:39;102513.53;;;1.30;87.75
62333;BME280;48624;49.812;8.562;2023-02-11T07:40:06;102516.16;;;1.23;86.84
62333;BME280;48624;49.812;8.562;2023-02-11T07:42:33;102507.41;;;1.18;87.29
62333;BME280;48624;49.812;8.562;2023-02-11T07:44:58;102512.69;;;1.35;87.20
62333;BME280;48624;49.812;8.562;2023-02-11T07:47:23;102508.41;;;1.50;86.86
62333;BME280;48624;49.812;8.562;2023-02-11T07:49:49;102512.72;;;1.45;87.02
62333;BME280;48624;49.812;8.562;2023-02-11T07:52:14;102505.78;;;1.51;86.21
62333;BME280;48624;49.812;8.562;2023-02-11T07:54:39;102511.06;;;1.59;86.17
62333;BME280;48624;49.812;8.562;2023-02-11T07:57:04;102513.66;;;1.59;86.37
62333;BME280;48624;49.812;8.562;2023-02-11T07:59:30;102519.78;;;1.71;85.68
62333;BME280;48624;49.812;8.562;2023-02-11T08:01:55;102508.47;;;1.69;85.52
62333;BME280;48624;49.812;8.562;2023-02-11T08:04:20;102504.13;;;1.77;84.89
62333;BME280;48624;49.812;8.562;2023-02-11T08:06:45;102512.81;;;1.70;85.08
62333;BME280;48624;49.812;8.562;2023-02-11T08:09:15;102521.53;;;1.73;85.03
62333;BME280;48624;49.812;8.562;2023-02-11T08:11:43;102524.19;;;1.87;84.85
62333;BME280;48624;49.812;8.562;2023-02-11T08:14:09;102523.34;;;2.02;84.44
62333;BME280;48624;49.812;8.562;2023-02-11T08:16:35;102513.72;;;1.90;84.74
62333;BME280;48624;49.812;8.562;2023-02-11T08:19:03;102522.44;;;1.88;84.56
62333;BME280;48624;49.812;8.562;2023-02-11T08:21:29;102524.22;;;2.06;84.48
62333;BME280;48624;49.812;8.562;2023-02-11T08:23:55;102523.31;;;2.04;84.13
62333;BME280;48624;49.812;8.562;2023-02-11T08:26:22;102523.34;;;2.27;83.01
62333;BME280;48624;49.812;8.562;2023-02-11T08:28:50;102512.91;;;2.26;83.15
62333;BME280;48624;49.812;8.562;2023-02-11T08:31:18;102527.72;;;2.27;82.77
62333;BME280;48624;49.812;8.562;2023-02-11T08:33:44;102533.81;;;2.26;82.74
62333;BME280;48624;49.812;8.562;2023-02-11T08:36:16;102519.84;;;2.25;83.37
62333;BME280;48624;49.812;8.562;2023-02-11T08:38:42;102529.47;;;2.20;83.42
62333;BME280;48624;49.812;8.562;2023-02-11T08:41:08;102532.09;;;2.25;83.39
62333;BME280;48624;49.812;8.562;2023-02-11T08:43:35;102539.94;;;2.25;83.53
62333;BME280;48624;49.812;8.562;2023-02-11T08:46:00;102539.91;;;2.56;82.73
62333;BME280;48624;49.812;8.562;2023-02-11T08:48:26;102542.53;;;2.56;82.14
62333;BME280;48624;49.812;8.562;2023-02-11T08:50:53;102547.78;;;2.56;82.25
62333;BME280;48624;49.812;8.562;2023-02-11T08:53:18;102553.84;;;2.80;81.89
62333;BME280;48624;49.812;8.562;2023-02-11T08:55:51;102558.22;;;2.77;81.21
62333;BME280;48624;49.812;8.562;2023-02-11T08:58:18;102567.81;;;2.82;81.11
62333;BME280;48624;49.812;8.562;2023-02-11T09:00:44;102571.28;;;3.02;81.50
62333;BME280;48624;49.812;8.562;2023-02-11T09:03:11;102568.59;;;3.29;80.84
62333;BME280;48624;49.812;8.562;2023-02-11T09:05:46;102564.25;;;3.25;80.46
62333;BME280;48624;49.812;8.562;2023-02-11T09:08:12;102570.34;;;3.22;79.96
62333;BME280;48624;49.812;8.562;2023-02-11T09:10:37;102571.22;;;3.24;80.14
62333;BME280;48624;49.812;8.562;2023-02-11T09:13:03;102577.31;;;3.26;80.33
62333;BME280;48624;49.812;8.562;2023-02-11T09:15:29;102579.00;;;3.46;80.08
62333;BME280;48624;49.812;8.562;2023-02-11T09:17:55;102576.38;;;3.46;79.63
62333;BME280;48624;49.812;8.562;2023-02-11T09:20:21;102568.38;;;3.74;79.50
62333;BME280;48624;49.812;8.562;2023-02-11T09:22:46;102564.06;;;3.71;79.60
62333;BME280;48624;49.812;8.562;2023-02-11T09:25:12;102574.50;;;3.78;79.22
62333;BME280;48624;49.812;8.562;2023-02-11T09:27:38;102571.81;;;3.88;78.48
62333;BME280;48624;49.812;8.562;2023-02-11T09:30:04;102570.19;;;3.67;78.53
62333;BME280;48624;49.812;8.562;2023-02-11T09:32:29;102578.03;;;3.75;78.34
62333;BME280;48624;49.812;8.562;2023-02-11T09:34:54;102576.97;;;4.09;78.77
62333;BME280;48624;49.812;8.562;2023-02-11T09:37:20;102573.34;;;4.25;77.85
62333;BME280;48624;49.812;8.562;2023-02-11T09:39:45;102574.22;;;4.27;78.48
62333;BME280;48624;49.812;8.562;2023-02-11T09:42:43;102583.88;;;4.19;78.00
62333;BME280;48624;49.812;8.562;2023-02-11T09:45:21;102580.16;;;4.50;77.54
62333;BME280;48624;49.812;8.562;2023-02-11T09:47:56;102577.47;;;4.54;77.31
62333;BME280;48624;49.812;8.562;2023-02-11T09:50:38;102574.81;;;4.59;76.86
62333;BME280;48624;49.812;8.562;2023-02-11T09:53:15;102578.16;;;4.77;76.75
62333;BME280;48624;49.812;8.562;2023-02-11T09:55:44;102571.84;;;4.98;75.94
62333;BME280;48624;49.812;8.562;2023-02-11T09:58:15;102582.22;;;5.13;74.87
62333;BME280;48624;49.812;8.562;2023-02-11T10:03:41;102579.63;;;5.07;74.72
62333;BME280;48624;49.812;8.562;2023-02-11T10:06:19;102585.38;;;5.40;73.68
62333;BME280;48624;49.812;8.562;2023-02-11T10:11:54;102590.47;;;5.58;73.61
62333;BME280;48624;49.812;8.562;2023-02-11T10:17:05;102588.75;;;5.55;74.14
62333;BME280;48624;49.812;8.562;2023-02-11T10:22:31;102592.69;;;5.87;73.04
62333;BME280;48624;49.812;8.562;2023-02-11T10:25:11;102591.97;;;5.77;72.99
62333;BME280;48624;49.812;8.562;2023-02-11T10:27:42;102591.78;;;5.91;72.97
62333;BME280;48624;49.812;8.562;2023-02-11T10:30:31;102586.22;;;6.15;72.44
62333;BME280;48624;49.812;8.562;2023-02-11T10:33:19;102592.88;;;6.41;71.85
62333;BME280;48624;49.812;8.562;2023-02-11T10:35:47;102589.50;;;6.29;72.26
62333;BME280;48624;49.812;8.562;2023-02-11T10:38:13;102581.00;;;6.68;72.06
62333;BME280;48624;49.812;8.562;2023-02-11T10:40:38;102581.38;;;6.45;72.61
62333;BME280;48624;49.812;8.562;2023-02-11T10:43:06;102568.63;;;6.72;71.75
62333;BME280;48624;49.812;8.562;2023-02-11T10:45:46;102575.56;;;6.77;70.73
62333;BME280;48624;49.812;8.562;2023-02-11T10:48:43;102572.41;;;7.05;70.65
62333;BME280;48624;49.812;8.562;2023-02-11T10:53:38;102570.69;;;7.04;70.41
62333;BME280;48624;49.812;8.562;2023-02-11T10:56:05;102563.50;;;7.13;70.67
62333;BME280;48624;49.812;8.562;2023-02-11T10:58:43;102570.13;;;6.87;71.13
62333;BME280;48624;49.812;8.562;2023-02-11T11:01:09;102557.44;;;7.07;70.74
62333;BME280;48624;49.812;8.562;2023-02-11T11:03:40;102566.34;;;7.02;71.69
62333;BME280;48624;49.812;8.562;2023-02-11T11:06:10;102563.38;;;6.70;72.05
62333;BME280;48624;49.812;8.562;2023-02-11T11:11:06;102564.78;;;6.91;71.43
62333;BME280;48624;49.812;8.562;2023-02-11T11:14:12;102560.34;;;6.92;72.36
62333;BME280;48624;49.812;8.562;2023-02-11T11:16:33;102559.22;;;7.07;72.19
62333;BME280;48624;49.812;8.562;2023-02-11T11:21:35;102555.59;;;7.13;71.74
62333;BME280;48624;49.812;8.562;2023-02-11T11:24:04;102566.31;;;7.47;71.54
62333;BME280;48624;49.812;8.562;2023-02-11T11:26:46;102569.69;;;7.10;71.47
62333;BME280;48624;49.812;8.562;2023-02-11T11:29:23;102564.72;;;7.39;70.97
62333;BME280;48624;49.812;8.562;2023-02-11T11:31:57;102559.69;;;7.28;71.78
62333;BME280;48624;49.812;8.562;2023-02-11T11:34:36;102561.09;;;7.44;71.34
62333;BME280;48624;49.812;8.562;2023-02-11T11:37:21;102556.81;;;7.39;71.72
62333;BME280;48624;49.812;8.562;2023-02-11T11:39:55;102557.88;;;7.72;70.09
62333;BME280;48624;49.812;8.562;2023-02-11T11:42:27;102558.88;;;7.67;70.15
62333;BME280;48624;49.812;8.562;2023-02-11T11:47:34;102553.78;;;7.59;70.93
62333;BME280;48624;49.812;8.562;2023-02-11T11:50:34;102550.56;;;7.85;69.40
62333;BME280;48624;49.812;8.562;2023-02-11T11:53:13;102532.66;;;7.59;70.93
62333;BME280;48624;49.812;8.562;2023-02-11T11:55:47;102540.84;;;7.87;69.82
62333;BME280;48624;49.812;8.562;2023-02-11T11:58:18;102550.84;;;7.71;70.76
62333;BME280;48624;49.812;8.562;2023-02-11T12:04:12;102547.88;;;7.47;71.25
62333;BME280;48624;49.812;8.562;2023-02-11T12:20:11;102549.63;;;7.47;71.65
62333;BME280;48624;49.812;8.562;2023-02-11T12:22:50;102549.38;;;7.59;71.94
62333;BME280;48624;49.812;8.562;2023-02-11T12:25:26;102542.09;;;7.71;71.48
62333;BME280;48624;49.812;8.562;2023-02-11T12:28:15;102539.38;;;7.74;70.97
62333;BME280;48624;49.812;8.562;2023-02-11T12:33:59;102533.91;;;7.42;71.99
62333;BME280;48624;49.812;8.562;2023-02-11T12:36:44;102533.88;;;7.44;72.22
62333;BME280;48624;49.812;8.562;2023-02-11T12:39:43;102535.44;;;7.08;72.98
62333;BME280;48624;49.812;8.562;2023-02-11T12:42:33;102539.56;;;7.64;71.69
62333;BME280;48624;49.812;8.562;2023-02-11T12:45:37;102540.97;;;7.81;71.55
62333;BME280;48624;49.812;8.562;2023-02-11T12:49:01;102536.75;;;7.74;72.27
62333;BME280;48624;49.812;8.562;2023-02-11T12:56:57;102525.94;;;7.85;73.11
62333;BME280;48624;49.812;8.562;2023-02-11T13:02:28;102514.38;;;7.90;73.43
62333;BME280;48624;49.812;8.562;2023-02-11T13:07:45;102507.59;;;7.80;73.50
62333;BME280;48624;49.812;8.562;2023-02-11T13:10:25;102511.13;;;7.79;74.01
62333;BME280;48624;49.812;8.562;2023-02-11T13:12:53;102506.59;;;7.84;74.31
62333;BME280;48624;49.812;8.562;2023-02-11T13:15:39;102509.13;;;7.89;74.35
62333;BME280;48624;49.812;8.562;2023-02-11T13:20:55;102509.47;;;8.11;73.46
62333;BME280;48624;49.812;8.562;2023-02-11T13:26:30;102513.81;;;7.76;75.40
62333;BME280;48624;49.812;8.562;2023-02-11T13:29:54;102511.59;;;7.97;74.55
62333;BME280;48624;49.812;8.562;2023-02-11T13:32:10;102503.25;;;7.76;74.83
62333;BME280;48624;49.812;8.562;2023-02-11T13:37:29;102503.16;;;8.18;73.08
62333;BME280;48624;49.812;8.562;2023-02-11T13:42:26;102502.50;;;7.71;76.10
62333;BME280;48624;49.812;8.562;2023-02-11T13:44:53;102497.28;;;7.68;76.01
62333;BME280;48624;49.812;8.562;2023-02-11T13:47:26;102504.97;;;7.78;75.99
62333;BME280;48624;49.812;8.562;2023-02-11T13:49:56;102496.09;;;8.19;74.54
62333;BME280;48624;49.812;8.562;2023-02-11T13:52:40;102498.41;;;7.97;75.15
62333;BME280;48624;49.812;8.562;2023-02-11T13:55:19;102494.00;;;7.58;76.62
62333;BME280;48624;49.812;8.562;2023-02-11T14:03:18;102504.03;;;7.81;75.95
62333;BME280;48624;49.812;8.562;2023-02-11T14:11:53;102490.97;;;7.75;76.54
62333;BME280;48624;49.812;8.562;2023-02-11T14:14:24;102504.75;;;7.88;76.27
62333;BME280;48624;49.812;8.562;2023-02-11T14:19:35;102499.47;;;7.50;78.06
62333;BME280;48624;49.812;8.562;2023-02-11T14:22:03;102503.78;;;7.53;78.11
62333;BME280;48624;49.812;8.562;2023-02-11T14:27:02;102502.00;;;7.55;78.00
62333;BME280;48624;49.812;8.562;2023-02-11T14:40:31;102513.91;;;7.71;77.94
62333;BME280;48624;49.812;8.562;2023-02-11T14:43:04;102518.53;;;7.20;80.03
62333;BME280;48624;49.812;8.562;2023-02-11T14:45:36;102516.22;;;7.47;79.49
62333;BME280;48624;49.812;8.562;2023-02-11T14:48:06;102520.41;;;7.56;78.83
62333;BME280;48624;49.812;8.562;2023-02-11T14:50:40;102523.16;;;7.52;79.01
62333;BME280;48624;49.812;8.562;2023-02-11T14:53:14;102525.94;;;7.45;79.35
62333;BME280;48624;49.812;8.562;2023-02-11T14:55:43;102523.72;;;7.66;78.82
62333;BME280;48624;49.812;8.562;2023-02-11T14:58:29;102520.06;;;7.73;77.72
62333;BME280;48624;49.812;8.562;2023-02-11T15:01:05;102523.50;;;7.34;78.89
62333;BME280;48624;49.812;8.562;2023-02-11T15:03:39;102529.00;;;7.24;78.62
62333;BME280;48624;49.812;8.562;2023-02-11T15:06:21;102523.63;;;7.28;78.79